Accueil
METAR-TAF:

METAR-TAF

Aéroports :

Milford Municipal Airport (Ben and Judy Briscoe Field)

Milford, Utah, États-Unis

latitude: 38-25-21N, longitude: 113-00-35W, altitude: 1536 m

Observation

Le bulletin a été fait il y a 53 minutes, à 09:52 UTC
Vent 7 kt de sud/sud-est
Température -3°C
Humidité 74%
Pression 1010 hPa
Visibilité: 16.1 km
Ciel clair

METAR: KMLF 040952Z AUTO 16007KT 10SM CLR M03/M07 A2983 RMK AO2 SLP090 T10281067

Heure: 04:45 (10:45 UTC)


TAF: absent

Observations et prévisions météorologiques de plus de 4000 aéroports (messages METAR et TAF).

Les stations disponibles sont représentées par des disques jaunes et rouges sur la carte.

Passer la souris dessus pour voir le nom de la station.

Cliquer dessus pour voir les observations et prévisions météorologiques.

Pour changer de carte: cliquez sur les boutons verts avec une croix noire pour zoomer, sur le bouton vert avec un tiret pour effectuer un zoom arrière, ou sur les flèches vertes pour les cartes adjacentes.


METAR-TAF: